createdAt,value
2019-03-20T00:00:37.374Z,0.00
2019-03-20T00:01:48.012Z,0.00
2019-03-20T00:02:59.135Z,0.00
2019-03-20T00:04:10.276Z,0.00
2019-03-20T00:05:20.926Z,0.00
2019-03-20T00:06:31.531Z,0.00
2019-03-20T00:07:42.660Z,0.00
2019-03-20T00:08:53.790Z,0.00
2019-03-20T00:10:04.417Z,0.00
2019-03-20T00:11:15.623Z,0.00
2019-03-20T00:12:26.262Z,0.00
2019-03-20T00:13:36.885Z,0.00
2019-03-20T00:14:48.023Z,0.00
2019-03-20T00:15:59.140Z,0.00
2019-03-20T00:17:10.279Z,0.00
2019-03-20T00:18:20.913Z,0.00
2019-03-20T00:19:31.537Z,0.00
2019-03-20T00:20:42.175Z,0.00
2019-03-20T00:21:53.299Z,0.00
2019-03-20T00:23:03.931Z,0.00
2019-03-20T00:24:14.553Z,0.00
2019-03-20T00:25:25.176Z,0.00
2019-03-20T00:26:35.807Z,0.00
2019-03-20T00:27:46.930Z,0.00
2019-03-20T00:28:57.558Z,0.00
2019-03-20T00:30:08.674Z,0.00
2019-03-20T00:31:19.301Z,0.00
2019-03-20T00:32:29.927Z,0.00
2019-03-20T00:33:40.559Z,0.00
2019-03-20T00:35:00.481Z,0.00
2019-03-20T00:36:01.811Z,0.00
2019-03-20T00:37:12.449Z,0.00
2019-03-20T00:38:24.567Z,0.00
2019-03-20T00:39:35.200Z,0.00
2019-03-20T00:40:46.322Z,0.00
2019-03-20T00:41:57.435Z,0.00
2019-03-20T00:43:08.077Z,0.00
2019-03-20T00:44:18.693Z,0.00
2019-03-20T00:45:29.819Z,0.00
2019-03-20T00:46:40.440Z,0.00
2019-03-20T00:47:51.089Z,0.00
2019-03-20T00:49:01.721Z,0.00
2019-03-20T00:50:12.853Z,0.00
2019-03-20T00:51:23.622Z,0.00
2019-03-20T00:52:34.248Z,0.00
2019-03-20T00:53:44.870Z,0.00
2019-03-20T00:54:56.992Z,0.00
2019-03-20T00:56:07.613Z,0.00
2019-03-20T00:57:18.736Z,0.00
2019-03-20T00:58:29.359Z,0.00
2019-03-20T00:59:40.486Z,0.00
2019-03-20T01:00:51.116Z,0.00
2019-03-20T01:02:01.734Z,0.00
2019-03-20T01:03:12.855Z,0.00
2019-03-20T01:04:23.979Z,0.00
2019-03-20T01:05:35.100Z,0.00
2019-03-20T01:06:46.210Z,0.00
2019-03-20T01:07:57.332Z,0.00
2019-03-20T01:09:08.450Z,0.00
2019-03-20T01:10:19.081Z,0.00
2019-03-20T01:11:29.705Z,0.00
2019-03-20T01:12:40.818Z,0.00
2019-03-20T01:13:51.937Z,0.00
2019-03-20T01:15:02.566Z,0.00
2019-03-20T01:16:13.184Z,0.00
2019-03-20T01:17:23.804Z,0.00
2019-03-20T01:18:34.920Z,0.00
2019-03-20T01:19:45.536Z,0.00
2019-03-20T01:20:57.653Z,0.00
2019-03-20T01:22:08.776Z,0.00
2019-03-20T01:23:19.397Z,0.00
2019-03-20T01:24:30.505Z,0.00
2019-03-20T01:25:41.136Z,0.00
2019-03-20T01:26:52.252Z,0.00
2019-03-20T01:28:03.364Z,0.00
2019-03-20T01:29:14.479Z,0.00
2019-03-20T01:30:25.105Z,0.00
2019-03-20T01:31:36.214Z,0.00
2019-03-20T01:32:47.321Z,0.00
2019-03-20T01:33:57.950Z,0.00
2019-03-20T01:35:08.563Z,0.00
2019-03-20T01:36:19.187Z,0.00
2019-03-20T01:37:30.312Z,0.00
2019-03-20T01:38:40.931Z,0.00
2019-03-20T01:39:51.547Z,0.00
2019-03-20T01:41:02.179Z,0.00
2019-03-20T01:42:14.294Z,0.00
2019-03-20T01:43:24.900Z,0.00
2019-03-20T01:44:36.011Z,0.00
2019-03-20T01:45:46.638Z,0.00
2019-03-20T01:46:57.260Z,0.00
2019-03-20T01:48:07.886Z,0.00
2019-03-20T01:49:18.496Z,0.00
2019-03-20T01:50:29.616Z,0.00
2019-03-20T01:51:40.247Z,0.00
2019-03-20T01:52:50.873Z,0.00
2019-03-20T01:54:01.974Z,0.00
2019-03-20T01:55:14.087Z,0.00
2019-03-20T01:56:26.201Z,0.00
2019-03-20T01:57:36.825Z,0.00
2019-03-20T01:58:47.946Z,0.00
2019-03-20T01:59:58.555Z,0.00
2019-03-20T02:01:09.671Z,0.00
2019-03-20T02:02:21.784Z,0.00
2019-03-20T02:03:33.390Z,0.00
2019-03-20T02:04:44.506Z,0.00
2019-03-20T02:05:55.616Z,0.00
2019-03-20T02:07:06.233Z,0.00
2019-03-20T02:08:17.340Z,0.00
2019-03-20T02:09:28.449Z,0.00
2019-03-20T02:10:39.635Z,0.00
2019-03-20T02:11:51.242Z,0.00
2019-03-20T02:13:01.858Z,0.00
2019-03-20T02:14:12.469Z,0.00
2019-03-20T02:15:23.086Z,0.00
2019-03-20T02:16:34.692Z,0.00
2019-03-20T02:17:45.500Z,0.00
2019-03-20T02:18:56.609Z,0.00
2019-03-20T02:20:07.216Z,0.00
2019-03-20T02:21:17.827Z,0.00
2019-03-20T02:22:28.449Z,0.00
2019-03-20T02:23:39.054Z,0.00
2019-03-20T02:24:51.167Z,0.00
2019-03-20T02:26:02.767Z,0.00
2019-03-20T02:27:13.378Z,0.00
2019-03-20T02:28:23.996Z,0.00
2019-03-20T02:29:34.620Z,0.00
2019-03-20T02:30:46.230Z,0.00
2019-03-20T02:31:57.337Z,0.00
2019-03-20T02:33:07.955Z,0.00
2019-03-20T02:34:18.569Z,0.00
2019-03-20T02:35:29.172Z,0.00
2019-03-20T02:36:39.771Z,0.00
2019-03-20T02:37:50.399Z,0.00
2019-03-20T02:39:01.627Z,0.00
2019-03-20T02:40:12.225Z,0.00
2019-03-20T02:41:22.823Z,0.00
2019-03-20T02:42:33.434Z,0.00
2019-03-20T02:43:44.052Z,0.00
2019-03-20T02:44:55.151Z,0.00
2019-03-20T02:46:06.246Z,0.00
2019-03-20T02:47:16.858Z,0.00
2019-03-20T02:48:27.628Z,0.00
2019-03-20T02:49:38.236Z,0.00
2019-03-20T02:50:49.349Z,0.00
2019-03-20T02:51:59.951Z,0.00
2019-03-20T02:53:10.557Z,0.00
2019-03-20T02:54:21.178Z,0.00
2019-03-20T02:55:31.778Z,0.00
2019-03-20T02:56:42.942Z,0.00
2019-03-20T02:57:53.633Z,0.00
2019-03-20T02:59:04.269Z,0.00
2019-03-20T03:00:15.374Z,0.00
2019-03-20T03:01:26.478Z,0.00
2019-03-20T03:02:37.084Z,0.00
2019-03-20T03:03:48.173Z,0.00
2019-03-20T03:04:59.282Z,0.00
2019-03-20T03:06:09.892Z,0.00
2019-03-20T03:07:20.995Z,0.00
2019-03-20T03:08:32.105Z,0.00
2019-03-20T03:09:42.722Z,0.00
2019-03-20T03:10:55.686Z,0.00
2019-03-20T03:12:04.441Z,0.00
2019-03-20T03:13:15.631Z,0.00
2019-03-20T03:14:26.231Z,0.00
2019-03-20T03:15:37.334Z,0.00
2019-03-20T03:16:48.426Z,0.00
2019-03-20T03:17:59.617Z,0.00
2019-03-20T03:19:10.230Z,0.00
2019-03-20T03:20:21.323Z,0.00
2019-03-20T03:21:31.926Z,0.00
2019-03-20T03:22:43.044Z,0.00
2019-03-20T03:23:54.111Z,0.00
2019-03-20T03:25:04.725Z,0.00
2019-03-20T03:26:15.333Z,0.00
2019-03-20T03:27:26.441Z,0.00
2019-03-20T03:28:37.045Z,0.00
2019-03-20T03:29:47.643Z,0.00
2019-03-20T03:30:58.260Z,0.00
2019-03-20T03:32:09.353Z,0.00
2019-03-20T03:33:20.507Z,0.00
2019-03-20T03:34:31.051Z,0.00
2019-03-20T03:35:42.164Z,0.00
2019-03-20T03:36:52.775Z,0.00
2019-03-20T03:38:03.375Z,0.00
2019-03-20T03:39:14.467Z,0.00
2019-03-20T03:40:25.080Z,0.00
2019-03-20T03:41:35.684Z,0.00
2019-03-20T03:42:46.281Z,0.00
2019-03-20T03:43:56.884Z,0.00
2019-03-20T03:45:07.509Z,0.00
2019-03-20T03:46:18.119Z,0.00
2019-03-20T03:47:28.722Z,0.00
2019-03-20T03:48:39.329Z,0.00
2019-03-20T03:49:49.937Z,0.00
2019-03-20T03:51:00.522Z,0.00
2019-03-20T03:52:11.629Z,0.00
2019-03-20T03:53:22.223Z,0.00
2019-03-20T03:54:33.825Z,0.00
2019-03-20T03:55:44.421Z,0.00
2019-03-20T03:56:55.630Z,0.00
2019-03-20T03:58:06.232Z,0.00
2019-03-20T03:59:16.821Z,0.00
2019-03-20T04:00:27.421Z,0.00
2019-03-20T04:01:38.511Z,0.00
2019-03-20T04:02:49.124Z,0.00
2019-03-20T04:03:59.715Z,0.00
2019-03-20T04:05:10.307Z,0.00
2019-03-20T04:06:34.583Z,0.00
2019-03-20T04:07:31.501Z,0.00
2019-03-20T04:08:42.109Z,0.00
2019-03-20T04:09:54.200Z,0.00
2019-03-20T04:11:04.810Z,0.00
2019-03-20T04:12:15.899Z,0.00
2019-03-20T04:13:26.501Z,0.00
2019-03-20T04:14:38.091Z,0.00
2019-03-20T04:15:49.174Z,0.00
2019-03-20T04:17:00.275Z,0.00
2019-03-20T04:18:10.878Z,0.00
2019-03-20T04:19:21.619Z,0.00
2019-03-20T04:20:32.219Z,0.00
2019-03-20T04:21:43.309Z,0.00
2019-03-20T04:22:53.904Z,0.00
2019-03-20T04:24:04.504Z,0.00
2019-03-20T04:25:15.103Z,0.00
2019-03-20T04:26:25.701Z,0.00
2019-03-20T04:27:36.289Z,0.00
2019-03-20T04:28:46.888Z,0.00
2019-03-20T04:29:57.632Z,0.00
2019-03-20T04:31:08.714Z,0.00
2019-03-20T04:32:19.308Z,0.00
2019-03-20T04:33:29.906Z,0.00
2019-03-20T04:34:41.000Z,0.00
2019-03-20T04:35:52.077Z,0.00
2019-03-20T04:37:03.167Z,0.00
2019-03-20T04:38:13.766Z,0.00
2019-03-20T04:39:24.855Z,0.00
2019-03-20T04:40:35.442Z,0.00
2019-03-20T04:41:46.031Z,0.00
2019-03-20T04:42:57.123Z,0.00
2019-03-20T04:44:07.721Z,0.00
2019-03-20T04:45:18.825Z,0.00
2019-03-20T04:46:29.421Z,0.00
2019-03-20T04:47:40.007Z,0.00
2019-03-20T04:48:51.096Z,0.00
2019-03-20T04:50:01.695Z,0.00
2019-03-20T04:51:12.292Z,0.00
2019-03-20T04:52:23.380Z,0.00
2019-03-20T04:53:33.981Z,0.00
2019-03-20T04:54:44.577Z,0.00
2019-03-20T04:55:56.167Z,0.00
2019-03-20T04:57:06.758Z,0.00
2019-03-20T04:58:17.354Z,4.00
2019-03-20T04:59:28.451Z,0.00
2019-03-20T05:00:39.044Z,4.00
2019-03-20T05:01:49.629Z,4.00
2019-03-20T05:03:01.124Z,4.00
2019-03-20T05:04:11.322Z,4.00
2019-03-20T05:05:22.413Z,8.00
2019-03-20T05:06:33.006Z,8.00
2019-03-20T05:07:44.095Z,12.00
2019-03-20T05:08:54.846Z,12.00
2019-03-20T05:10:05.771Z,16.00
2019-03-20T05:11:16.358Z,24.00
2019-03-20T05:12:27.443Z,28.00
2019-03-20T05:13:38.035Z,36.00
2019-03-20T05:14:48.636Z,44.00
2019-03-20T05:15:59.236Z,52.00
2019-03-20T05:17:10.318Z,64.00
2019-03-20T05:18:20.908Z,76.00
2019-03-20T05:19:31.500Z,92.00
2019-03-20T05:20:42.582Z,112.00
2019-03-20T05:21:53.662Z,128.00
2019-03-20T05:23:04.253Z,148.00
2019-03-20T05:24:14.846Z,172.00
2019-03-20T05:25:25.438Z,196.00
2019-03-20T05:26:37.529Z,224.00
2019-03-20T05:27:48.112Z,256.00
2019-03-20T05:28:59.211Z,288.00
2019-03-20T05:30:10.294Z,320.00
2019-03-20T05:31:21.388Z,356.00
2019-03-20T05:32:31.982Z,392.00
2019-03-20T05:33:42.567Z,432.00
2019-03-20T05:34:53.149Z,476.00
2019-03-20T05:36:04.245Z,520.00
2019-03-20T05:37:15.350Z,568.00
2019-03-20T05:38:26.435Z,616.00
2019-03-20T05:39:37.025Z,664.00
2019-03-20T05:40:48.122Z,716.00
2019-03-20T05:41:58.709Z,764.00
2019-03-20T05:43:09.300Z,820.00
2019-03-20T05:44:19.903Z,868.00
2019-03-20T05:45:30.499Z,924.00
2019-03-20T05:46:41.627Z,980.00
2019-03-20T05:47:53.222Z,1036.00
2019-03-20T05:49:03.815Z,1092.00
2019-03-20T05:50:14.907Z,1152.00
2019-03-20T05:51:25.507Z,1204.00
2019-03-20T05:52:36.586Z,1264.00
2019-03-20T05:53:47.705Z,1320.00
2019-03-20T05:54:58.796Z,1376.00
2019-03-20T05:56:09.888Z,1428.00
2019-03-20T05:57:22.000Z,1480.00
2019-03-20T05:58:32.599Z,1532.00
2019-03-20T05:59:43.691Z,1584.00
2019-03-20T06:00:54.287Z,1632.00
2019-03-20T06:02:05.391Z,1680.00
2019-03-20T06:03:15.976Z,1728.00
2019-03-20T06:04:27.072Z,1776.00
2019-03-20T06:05:38.165Z,1824.00
2019-03-20T06:06:48.768Z,1872.00
2019-03-20T06:07:59.867Z,1920.00
2019-03-20T06:09:10.454Z,1968.00
2019-03-20T06:10:21.633Z,2016.00
2019-03-20T06:11:32.705Z,2064.00
2019-03-20T06:12:43.794Z,2108.00
2019-03-20T06:13:54.393Z,2152.00
2019-03-20T06:15:05.621Z,2196.00
2019-03-20T06:16:17.711Z,2240.00
2019-03-20T06:17:29.805Z,2288.00
2019-03-20T06:18:40.895Z,2332.00
2019-03-20T06:19:51.990Z,2376.00
2019-03-20T06:21:02.581Z,2416.00
2019-03-20T06:22:13.196Z,2452.00
2019-03-20T06:23:23.793Z,2496.00
2019-03-20T06:24:34.891Z,2532.00
2019-03-20T06:25:45.492Z,2568.00
2019-03-20T06:26:56.579Z,2608.00
2019-03-20T06:28:07.183Z,2644.00
2019-03-20T06:29:20.067Z,2680.00
2019-03-20T06:30:28.892Z,2720.00
2019-03-20T06:31:40.006Z,2756.00
2019-03-20T06:32:50.616Z,2784.00
2019-03-20T06:34:01.705Z,2820.00
2019-03-20T06:35:12.303Z,2852.00
2019-03-20T06:36:22.899Z,2880.00
2019-03-20T06:37:34.001Z,2912.00
2019-03-20T06:38:44.617Z,2944.00
2019-03-20T06:39:55.707Z,2980.00
2019-03-20T06:41:06.820Z,3012.00
2019-03-20T06:42:17.913Z,3040.00
2019-03-20T06:43:29.032Z,3068.00
2019-03-20T06:44:40.131Z,3096.00
2019-03-20T06:45:51.234Z,3120.00
2019-03-20T06:47:02.330Z,3144.00
2019-03-20T06:48:12.951Z,3172.00
2019-03-20T06:49:23.552Z,3192.00
2019-03-20T06:50:34.661Z,3216.00
2019-03-20T06:51:45.775Z,3240.00
2019-03-20T06:52:56.890Z,3268.00
2019-03-20T06:54:07.501Z,3296.00
2019-03-20T06:55:18.603Z,3324.00
2019-03-20T06:56:29.709Z,3352.00
2019-03-20T06:57:40.321Z,3376.00
2019-03-20T06:58:51.426Z,3408.00
2019-03-20T07:00:02.524Z,3436.00
2019-03-20T07:01:13.633Z,3464.00
2019-03-20T07:02:24.741Z,3484.00
2019-03-20T07:03:35.362Z,3508.00
2019-03-20T07:04:45.968Z,3532.00
2019-03-20T07:05:57.081Z,3556.00
2019-03-20T07:07:08.186Z,3580.00
2019-03-20T07:08:19.295Z,3600.00
2019-03-20T07:09:30.914Z,3624.00
2019-03-20T07:10:42.018Z,3648.00
2019-03-20T07:11:53.129Z,3668.00
2019-03-20T07:13:03.744Z,3692.00
2019-03-20T07:14:14.362Z,3708.00
2019-03-20T07:15:24.971Z,3724.00
2019-03-20T07:16:35.589Z,3744.00
2019-03-20T07:17:46.211Z,3764.00
2019-03-20T07:18:56.838Z,3788.00
2019-03-20T07:20:07.637Z,3804.00
2019-03-20T07:21:18.967Z,3812.00
2019-03-20T07:22:29.873Z,3828.00
2019-03-20T07:23:40.986Z,3848.00
2019-03-20T07:24:52.117Z,3868.00
2019-03-20T07:26:02.739Z,3892.00
2019-03-20T07:27:13.371Z,3904.00
2019-03-20T07:28:23.987Z,3920.00
2019-03-20T07:29:35.116Z,3940.00
2019-03-20T07:30:45.743Z,3956.00
2019-03-20T07:31:56.859Z,3976.00
2019-03-20T07:33:07.979Z,4012.00
2019-03-20T07:34:18.606Z,4032.00
2019-03-20T07:35:29.717Z,4056.00
2019-03-20T07:36:40.832Z,4076.00
2019-03-20T07:37:56.287Z,4096.00
2019-03-20T07:39:03.094Z,4120.00
2019-03-20T07:40:14.230Z,4136.00
2019-03-20T07:41:25.344Z,4156.00
2019-03-20T07:42:36.478Z,4180.00
2019-03-20T07:43:47.603Z,4212.00
2019-03-20T07:44:58.761Z,4248.00
2019-03-20T07:46:09.859Z,4272.00
2019-03-20T07:47:20.495Z,4296.00
2019-03-20T07:48:31.640Z,4324.00
2019-03-20T07:49:42.275Z,4352.00
2019-03-20T07:50:53.388Z,4384.00
2019-03-20T07:52:04.041Z,4400.00
2019-03-20T07:53:14.676Z,4424.00
2019-03-20T07:54:25.314Z,4448.00
2019-03-20T07:55:36.446Z,4484.00
2019-03-20T07:56:47.079Z,4504.00
2019-03-20T07:57:58.210Z,4540.00
2019-03-20T07:59:08.847Z,4572.00
2019-03-20T08:00:20.005Z,4604.00
2019-03-20T08:01:30.637Z,4628.00
2019-03-20T08:02:41.269Z,4648.00
2019-03-20T08:03:51.921Z,4676.00
2019-03-20T08:05:03.049Z,4704.00
2019-03-20T08:06:13.690Z,4740.00
2019-03-20T08:07:24.346Z,4764.00
2019-03-20T08:08:34.995Z,4796.00
2019-03-20T08:09:46.206Z,4824.00
2019-03-20T08:10:57.362Z,4860.00
2019-03-20T08:12:08.011Z,4880.00
2019-03-20T08:13:18.653Z,4904.00
2019-03-20T08:14:29.305Z,4932.00
2019-03-20T08:15:40.455Z,4956.00
2019-03-20T08:16:51.095Z,4992.00
2019-03-20T08:18:02.241Z,4960.00
2019-03-20T08:19:13.388Z,5104.00
2019-03-20T08:20:24.534Z,5120.00
2019-03-20T08:21:35.679Z,5136.00
2019-03-20T08:22:46.330Z,5172.00
2019-03-20T08:23:57.000Z,5212.00
2019-03-20T08:25:08.138Z,5252.00
2019-03-20T08:26:18.802Z,5288.00
2019-03-20T08:27:29.950Z,5320.00
2019-03-20T08:28:41.101Z,5360.00
2019-03-20T08:29:52.274Z,5400.00
2019-03-20T08:31:03.438Z,5424.00
2019-03-20T08:32:14.578Z,5440.00
2019-03-20T08:33:25.751Z,5452.00
2019-03-20T08:34:36.898Z,5516.00
2019-03-20T08:35:48.041Z,5532.00
2019-03-20T08:36:58.708Z,5536.00
2019-03-20T08:38:17.744Z,5656.00
2019-03-20T08:39:21.014Z,5688.00
2019-03-20T08:40:32.169Z,5712.00
2019-03-20T08:41:43.344Z,5760.00
2019-03-20T08:42:54.000Z,5804.00
2019-03-20T08:44:04.663Z,5860.00
2019-03-20T08:45:15.817Z,5908.00
2019-03-20T08:46:27.013Z,5960.00
2019-03-20T08:47:37.684Z,6000.00
2019-03-20T08:49:00.556Z,6040.00
2019-03-20T08:50:11.723Z,6064.00
2019-03-20T08:51:22.886Z,6112.00
2019-03-20T08:52:34.049Z,6152.00
2019-03-20T08:53:45.218Z,6208.00
2019-03-20T08:54:55.881Z,6272.00
2019-03-20T08:56:06.549Z,6360.00
2019-03-20T08:57:17.725Z,6464.00
2019-03-20T08:58:28.888Z,6576.00
2019-03-20T08:59:39.556Z,6664.00
2019-03-20T09:00:50.232Z,6732.00
2019-03-20T09:02:01.414Z,6808.00
2019-03-20T09:03:12.670Z,6868.00
2019-03-20T09:04:23.846Z,6980.00
2019-03-20T09:05:35.024Z,7064.00
2019-03-20T09:06:46.217Z,7124.00
2019-03-20T09:07:56.900Z,7148.00
2019-03-20T09:09:08.090Z,7148.00
2019-03-20T09:10:19.297Z,7120.00
2019-03-20T09:11:29.960Z,7088.00
2019-03-20T09:12:41.152Z,6992.00
2019-03-20T09:13:52.330Z,6992.00
2019-03-20T09:15:03.527Z,7172.00
2019-03-20T09:16:15.214Z,7048.00
2019-03-20T09:17:26.406Z,7352.00
2019-03-20T09:18:37.099Z,7432.00
2019-03-20T09:19:47.806Z,7692.00
2019-03-20T09:20:58.508Z,7784.00
2019-03-20T09:22:09.702Z,7944.00
2019-03-20T09:23:20.912Z,8212.00
2019-03-20T09:24:32.102Z,8372.00
2019-03-20T09:25:43.304Z,8416.00
2019-03-20T09:26:54.620Z,8784.00
2019-03-20T09:28:05.835Z,9676.00
2019-03-20T09:29:18.852Z,13288.00
2019-03-20T09:30:27.256Z,31904.00
2019-03-20T09:31:38.619Z,62176.00
2019-03-20T09:32:49.867Z,64256.00
2019-03-20T09:34:01.177Z,65312.00
2019-03-20T09:35:11.906Z,64736.00
2019-03-20T09:36:23.196Z,61728.00
2019-03-20T09:37:34.622Z,65344.00
2019-03-20T09:38:46.290Z,60224.00
2019-03-20T09:39:57.658Z,59584.00
2019-03-20T09:41:08.550Z,56512.00
2019-03-20T09:42:19.961Z,61472.00
2019-03-20T09:43:31.411Z,56832.00
2019-03-20T09:44:42.887Z,62016.00
2019-03-20T09:45:53.876Z,68608.00
2019-03-20T09:47:04.906Z,69760.00
2019-03-20T09:48:15.936Z,69344.00
2019-03-20T09:49:27.497Z,70528.00
2019-03-20T09:50:38.571Z,73760.00
2019-03-20T09:51:50.160Z,73792.00
2019-03-20T09:53:01.796Z,69280.00
2019-03-20T09:54:12.945Z,73344.00
2019-03-20T09:55:24.103Z,74272.00
2019-03-20T09:56:35.289Z,69952.00
2019-03-20T09:57:46.952Z,71744.00
2019-03-20T09:58:58.163Z,72320.00
2019-03-20T10:00:09.379Z,68224.00
2019-03-20T10:01:21.101Z,66176.00
2019-03-20T10:02:32.346Z,67296.00
2019-03-20T10:03:43.604Z,65120.00
2019-03-20T10:04:55.388Z,64384.00
2019-03-20T10:06:06.693Z,68064.00
2019-03-20T10:07:18.449Z,63744.00
2019-03-20T10:08:29.734Z,61024.00
2019-03-20T10:09:41.537Z,55200.00
2019-03-20T10:10:52.865Z,62784.00
2019-03-20T10:12:04.670Z,59328.00
2019-03-20T10:13:15.993Z,65024.00
2019-03-20T10:14:27.326Z,65568.00
2019-03-20T10:15:38.676Z,60576.00
2019-03-20T10:16:50.005Z,60096.00
2019-03-20T10:18:02.349Z,62848.00
2019-03-20T10:19:13.707Z,65280.00
2019-03-20T10:20:25.063Z,64640.00
2019-03-20T10:21:36.430Z,62848.00
2019-03-20T10:22:47.794Z,63776.00
2019-03-20T10:23:59.676Z,67712.00
2019-03-20T10:25:11.052Z,70464.00
2019-03-20T10:26:22.442Z,70080.00
2019-03-20T10:27:33.854Z,70848.00
2019-03-20T10:28:46.250Z,69184.00
2019-03-20T10:29:57.674Z,70976.00
2019-03-20T10:31:09.099Z,64992.00
2019-03-20T10:32:20.518Z,59872.00
2019-03-20T10:33:31.949Z,59680.00
2019-03-20T10:34:43.878Z,56288.00
2019-03-20T10:35:55.314Z,55552.00
2019-03-20T10:37:06.751Z,53728.00
2019-03-20T10:38:18.182Z,54048.00
2019-03-20T10:39:29.618Z,57824.00
2019-03-20T10:40:41.057Z,59232.00
2019-03-20T10:41:52.489Z,58880.00
2019-03-20T10:43:03.924Z,56800.00
2019-03-20T10:44:15.368Z,56672.00
2019-03-20T10:45:27.048Z,57856.00
2019-03-20T10:46:38.932Z,60000.00
2019-03-20T10:47:52.740Z,63328.00
2019-03-20T10:49:01.822Z,63840.00
2019-03-20T10:50:13.280Z,64480.00
2019-03-20T10:51:24.733Z,67168.00
2019-03-20T10:52:36.189Z,64384.00
2019-03-20T10:53:48.138Z,63488.00
2019-03-20T10:54:59.625Z,63968.00
2019-03-20T10:56:11.069Z,66752.00
2019-03-20T10:57:22.540Z,52736.00
2019-03-20T10:58:34.014Z,65824.00
2019-03-20T10:59:45.488Z,65600.00
2019-03-20T11:00:57.453Z,65728.00
2019-03-20T11:02:09.433Z,72864.00
2019-03-20T11:03:20.903Z,74624.00
2019-03-20T11:04:32.388Z,74688.00
2019-03-20T11:05:44.886Z,73632.00
2019-03-20T11:06:56.376Z,75840.00
2019-03-20T11:08:07.879Z,74176.00
2019-03-20T11:09:19.397Z,64288.00
2019-03-20T11:10:31.908Z,73280.00
2019-03-20T11:11:43.446Z,75872.00
2019-03-20T11:12:55.433Z,73536.00
2019-03-20T11:14:07.468Z,74016.00
2019-03-20T11:15:18.996Z,73824.00
2019-03-20T11:16:31.035Z,71680.00
2019-03-20T11:17:42.572Z,73792.00
2019-03-20T11:18:54.103Z,71136.00
2019-03-20T11:20:05.641Z,69504.00
2019-03-20T11:21:17.179Z,61920.00
2019-03-20T11:22:28.717Z,39584.00
2019-03-20T11:23:40.239Z,44352.00
2019-03-20T11:24:51.760Z,67328.00
2019-03-20T11:26:03.270Z,71520.00
2019-03-20T11:27:14.781Z,74464.00
2019-03-20T11:28:26.294Z,73024.00
2019-03-20T11:29:37.820Z,72416.00
2019-03-20T11:30:49.847Z,71040.00
2019-03-20T11:32:01.389Z,72224.00
2019-03-20T11:33:13.421Z,68000.00
2019-03-20T11:34:24.969Z,66656.00
2019-03-20T11:35:36.530Z,70272.00
2019-03-20T11:36:48.089Z,67872.00
2019-03-20T11:38:00.656Z,67424.00
2019-03-20T11:39:12.704Z,74912.00
2019-03-20T11:40:24.784Z,77984.00
2019-03-20T11:41:36.862Z,74240.00
2019-03-20T11:42:48.451Z,69376.00
2019-03-20T11:44:00.051Z,75712.00
2019-03-20T11:45:11.640Z,81280.00
2019-03-20T11:46:23.239Z,75488.00
2019-03-20T11:47:34.839Z,74752.00
2019-03-20T11:48:46.443Z,72128.00
2019-03-20T11:49:58.614Z,70592.00
2019-03-20T11:51:10.231Z,67008.00
2019-03-20T11:52:21.834Z,72704.00
2019-03-20T11:53:33.453Z,72000.00
2019-03-20T11:54:45.062Z,68192.00
2019-03-20T11:55:56.682Z,69312.00
2019-03-20T11:57:08.287Z,72704.00
2019-03-20T11:58:19.903Z,69440.00
2019-03-20T11:59:31.507Z,67104.00
2019-03-20T12:00:43.164Z,61984.00
2019-03-20T12:01:54.770Z,66048.00
2019-03-20T12:03:06.377Z,66432.00
2019-03-20T12:04:17.981Z,67616.00
2019-03-20T12:05:29.582Z,66880.00
2019-03-20T12:06:41.203Z,63296.00
2019-03-20T12:07:52.816Z,68480.00
2019-03-20T12:09:04.416Z,64384.00
2019-03-20T12:10:16.622Z,59296.00
2019-03-20T12:11:28.231Z,68544.00
2019-03-20T12:12:40.332Z,71840.00
2019-03-20T12:13:51.939Z,67776.00
2019-03-20T12:15:03.538Z,68576.00
2019-03-20T12:16:15.145Z,65312.00
2019-03-20T12:17:26.759Z,61664.00
2019-03-20T12:18:38.671Z,59168.00
2019-03-20T12:19:50.268Z,64256.00
2019-03-20T12:21:01.859Z,63296.00
2019-03-20T12:22:13.459Z,67616.00
2019-03-20T12:23:25.056Z,65248.00
2019-03-20T12:24:36.635Z,62400.00
2019-03-20T12:25:48.229Z,61312.00
2019-03-20T12:27:00.828Z,64544.00
2019-03-20T12:28:12.396Z,62496.00
2019-03-20T12:29:23.979Z,60384.00
2019-03-20T12:30:35.553Z,63744.00
2019-03-20T12:31:47.135Z,62176.00
2019-03-20T12:32:58.725Z,61184.00
2019-03-20T12:34:10.294Z,62656.00
2019-03-20T12:35:21.863Z,62560.00
2019-03-20T12:36:33.440Z,63328.00
2019-03-20T12:37:45.023Z,61408.00
2019-03-20T12:38:56.603Z,60352.00
2019-03-20T12:40:08.178Z,60736.00
2019-03-20T12:41:19.758Z,59552.00
2019-03-20T12:42:31.334Z,51648.00
2019-03-20T12:43:45.406Z,60800.00
2019-03-20T12:44:54.975Z,58592.00
2019-03-20T12:46:06.535Z,61984.00
2019-03-20T12:47:18.633Z,64704.00
2019-03-20T12:48:30.201Z,66752.00
2019-03-20T12:49:42.258Z,61760.00
2019-03-20T12:50:54.325Z,63776.00
2019-03-20T12:52:06.388Z,60064.00
2019-03-20T12:53:17.963Z,57664.00
2019-03-20T12:54:30.018Z,53376.00
2019-03-20T12:55:42.634Z,57312.00
2019-03-20T12:56:54.238Z,58048.00
2019-03-20T12:58:05.773Z,59648.00
2019-03-20T12:59:17.836Z,61568.00
2019-03-20T13:00:29.897Z,60928.00
2019-03-20T13:01:41.959Z,65696.00
2019-03-20T13:02:54.039Z,62336.00
2019-03-20T13:04:05.601Z,61280.00
2019-03-20T13:05:17.183Z,53632.00
2019-03-20T13:06:29.254Z,54144.00
2019-03-20T13:07:40.830Z,59584.00
2019-03-20T13:08:52.908Z,61760.00
2019-03-20T13:10:04.978Z,57120.00
2019-03-20T13:11:17.042Z,53952.00
2019-03-20T13:12:29.118Z,57184.00
2019-03-20T13:13:40.709Z,56928.00
2019-03-20T13:14:52.779Z,55904.00
2019-03-20T13:16:04.848Z,53120.00
2019-03-20T13:17:16.910Z,53088.00
2019-03-20T13:18:28.971Z,57056.00
2019-03-20T13:19:41.067Z,56000.00
2019-03-20T13:20:53.105Z,60000.00
2019-03-20T13:22:05.155Z,62432.00
2019-03-20T13:23:17.232Z,62272.00
2019-03-20T13:24:29.292Z,59104.00
2019-03-20T13:25:41.355Z,60384.00
2019-03-20T13:26:52.925Z,63072.00
2019-03-20T13:28:04.998Z,61408.00
2019-03-20T13:29:17.061Z,61504.00
2019-03-20T13:30:30.119Z,58144.00
2019-03-20T13:31:42.179Z,52224.00
2019-03-20T13:32:54.259Z,40928.00
2019-03-20T13:34:05.828Z,50528.00
2019-03-20T13:35:17.397Z,53568.00
2019-03-20T13:36:28.964Z,52800.00
2019-03-20T13:37:40.531Z,55840.00
2019-03-20T13:38:52.105Z,58336.00
2019-03-20T13:40:13.641Z,54400.00
2019-03-20T13:41:15.223Z,55456.00
2019-03-20T13:42:26.789Z,56896.00
2019-03-20T13:43:38.847Z,53504.00
2019-03-20T13:44:50.894Z,50976.00
2019-03-20T13:46:02.944Z,51680.00
2019-03-20T13:47:14.645Z,52512.00
2019-03-20T13:48:26.709Z,43808.00
2019-03-20T13:49:38.741Z,48384.00
2019-03-20T13:50:50.323Z,51008.00
2019-03-20T13:52:01.872Z,51936.00
2019-03-20T13:53:15.543Z,60160.00
2019-03-20T13:54:25.990Z,53856.00
2019-03-20T13:55:38.042Z,51744.00
2019-03-20T13:56:49.599Z,54176.00
2019-03-20T13:58:01.158Z,51520.00
2019-03-20T13:59:12.722Z,49088.00
2019-03-20T14:00:24.337Z,44448.00
2019-03-20T14:01:36.330Z,42784.00
2019-03-20T14:02:47.885Z,45664.00
2019-03-20T14:03:59.935Z,50016.00
2019-03-20T14:05:11.487Z,48928.00
2019-03-20T14:06:23.033Z,46144.00
2019-03-20T14:07:34.567Z,49664.00
2019-03-20T14:08:46.121Z,38816.00
2019-03-20T14:09:57.654Z,36480.00
2019-03-20T14:11:09.673Z,45600.00
2019-03-20T14:12:21.209Z,47008.00
2019-03-20T14:13:32.747Z,42816.00
2019-03-20T14:14:44.768Z,32320.00
2019-03-20T14:15:56.782Z,32256.00
2019-03-20T14:17:08.298Z,37632.00
2019-03-20T14:18:20.765Z,40480.00
2019-03-20T14:19:32.274Z,41344.00
2019-03-20T14:20:43.757Z,43872.00
2019-03-20T14:21:55.741Z,42080.00
2019-03-20T14:23:07.743Z,43904.00
2019-03-20T14:24:19.244Z,42144.00
2019-03-20T14:25:30.776Z,44704.00
2019-03-20T14:26:42.692Z,43392.00
2019-03-20T14:27:54.168Z,43392.00
2019-03-20T14:29:06.154Z,43808.00
2019-03-20T14:30:18.118Z,43424.00
2019-03-20T14:31:30.087Z,44416.00
2019-03-20T14:32:42.063Z,44224.00
2019-03-20T14:33:54.037Z,41888.00
2019-03-20T14:35:05.525Z,43296.00
2019-03-20T14:36:17.497Z,42112.00
2019-03-20T14:37:28.975Z,39104.00
2019-03-20T14:38:41.438Z,40960.00
2019-03-20T14:39:53.420Z,36352.00
2019-03-20T14:41:05.381Z,37984.00